DLH5692 EDDN-EDDH
Flight info
| Callsign | DLH5692 |
|---|---|
| Flight time | 0h 55m |
| Altitude | 30000 |
| Route | ERETO1G/28 ERETO DCT LONLI M726 LASTO/N0427F340 M726 ERNUD M748 BUMIL/N0358F240 M748 RARUP RARUP6A |
| Aircraft | A20N/M-SDE2E3FGHIRWXY/LB1 |
Departure
| Time | 2026-04-20 18:25 |
|---|---|
| Airport | Nuremberg Airport (EDDN) |
Arrival
| Time | 2026-04-20 19:21 |
|---|---|
| Airport | Hamburg Helmut Schmidt Airport (EDDH) |
| Time | Latitude | Longitude | Altitude | Speed | Heading |
|---|---|---|---|---|---|
| 2026-04-20 17:58 | 49.49540 | 11.07517 | 1027 ft | 0 kts | 188° |
| 2026-04-20 18:12 | 49.49553 | 11.07520 | 1025 ft | 2 kts | 188° |
| 2026-04-20 18:12 | 49.49565 | 11.07523 | 1027 ft | 2 kts | 188° |
| 2026-04-20 18:12 | 49.49577 | 11.07525 | 1027 ft | 2 kts | 181° |
| 2026-04-20 18:13 | 49.49592 | 11.07525 | 1028 ft | 2 kts | 166° |
| 2026-04-20 18:13 | 49.49605 | 11.07516 | 1026 ft | 2 kts | 135° |
| 2026-04-20 18:13 | 49.49613 | 11.07497 | 1026 ft | 1 kts | 104° |
| 2026-04-20 18:13 | 49.49613 | 11.07499 | 1025 ft | 0 kts | 99° |
| 2026-04-20 18:17 | 49.49611 | 11.07513 | 1027 ft | 4 kts | 99° |
| 2026-04-20 18:17 | 49.49605 | 11.07576 | 1027 ft | 8 kts | 99° |
| 2026-04-20 18:18 | 49.49595 | 11.07672 | 1029 ft | 10 kts | 98° |
| 2026-04-20 18:18 | 49.49583 | 11.07794 | 1028 ft | 13 kts | 99° |
| 2026-04-20 18:18 | 49.49569 | 11.07936 | 1030 ft | 14 kts | 99° |
| 2026-04-20 18:18 | 49.49553 | 11.08102 | 1029 ft | 17 kts | 98° |
| 2026-04-20 18:19 | 49.49535 | 11.08287 | 1031 ft | 18 kts | 96° |
| 2026-04-20 18:19 | 49.49610 | 11.08391 | 1031 ft | 15 kts | 55° |
| 2026-04-20 18:19 | 49.49604 | 11.08549 | 1032 ft | 15 kts | 98° |
| 2026-04-20 18:19 | 49.49587 | 11.08715 | 1034 ft | 16 kts | 99° |
| 2026-04-20 18:20 | 49.49571 | 11.08889 | 1036 ft | 17 kts | 98° |
| 2026-04-20 18:20 | 49.49553 | 11.09074 | 1037 ft | 18 kts | 99° |
| 2026-04-20 18:20 | 49.49534 | 11.09265 | 1040 ft | 8 kts | 99° |
| 2026-04-20 18:20 | 49.49533 | 11.09276 | 1040 ft | 3 kts | 98° |
| 2026-04-20 18:21 | 49.49531 | 11.09300 | 1041 ft | 0 kts | 96° |
| 2026-04-20 18:22 | 49.49531 | 11.09303 | 1041 ft | 1 kts | 95° |
| 2026-04-20 18:22 | 49.49536 | 11.09357 | 1041 ft | 8 kts | 70° |
| 2026-04-20 18:22 | 49.49561 | 11.09419 | 1042 ft | 8 kts | 55° |
| 2026-04-20 18:22 | 49.49595 | 11.09491 | 1042 ft | 3 kts | 53° |
| 2026-04-20 18:23 | 49.49597 | 11.09496 | 1042 ft | 0 kts | 53° |
| 2026-04-20 18:23 | 49.49608 | 11.09517 | 1042 ft | 9 kts | 53° |
| 2026-04-20 18:23 | 49.49668 | 11.09563 | 1044 ft | 10 kts | 351° |
| 2026-04-20 18:24 | 49.49704 | 11.09480 | 1043 ft | 0 kts | 279° |
| 2026-04-20 18:24 | 49.49707 | 11.09448 | 1043 ft | 21 kts | 279° |
| 2026-04-20 18:25 | 49.49777 | 11.08748 | 1031 ft | 109 kts | 279° |
| 2026-04-20 18:25 | 49.49920 | 11.07241 | 1060 ft | 171 kts | 278° |
| 2026-04-20 18:25 | 49.50080 | 11.05301 | 1682 ft | 183 kts | 282° |
| 2026-04-20 18:25 | 49.50264 | 11.03417 | 2911 ft | 174 kts | 284° |
| 2026-04-20 18:26 | 49.50460 | 11.01542 | 3679 ft | 184 kts | 284° |
| 2026-04-20 18:26 | 49.50682 | 10.99486 | 4166 ft | 207 kts | 283° |
| 2026-04-20 18:26 | 49.50922 | 10.97191 | 4735 ft | 227 kts | 283° |
| 2026-04-20 18:26 | 49.51534 | 10.94877 | 5329 ft | 243 kts | 307° |
| 2026-04-20 18:27 | 49.52825 | 10.93147 | 6126 ft | 252 kts | 333° |
| 2026-04-20 18:27 | 49.54534 | 10.92490 | 7060 ft | 259 kts | 357° |
| 2026-04-20 18:27 | 49.56356 | 10.92617 | 7961 ft | 266 kts | 5° |
| 2026-04-20 18:27 | 49.58207 | 10.93015 | 8876 ft | 271 kts | 5° |
| 2026-04-20 18:28 | 49.60097 | 10.93419 | 9787 ft | 276 kts | 5° |
| 2026-04-20 18:28 | 49.62024 | 10.93839 | 10540 ft | 287 kts | 5° |
| 2026-04-20 18:28 | 49.64080 | 10.94292 | 10888 ft | 310 kts | 6° |
| 2026-04-20 18:28 | 49.66284 | 10.94786 | 11285 ft | 328 kts | 6° |
| 2026-04-20 18:29 | 49.67812 | 10.95134 | 11849 ft | 329 kts | 7° |
| 2026-04-20 18:29 | 49.70043 | 10.95643 | 12846 ft | 328 kts | 7° |
| 2026-04-20 18:29 | 49.72325 | 10.96164 | 13606 ft | 334 kts | 7° |
| 2026-04-20 18:29 | 49.74638 | 10.96692 | 14362 ft | 338 kts | 7° |
| 2026-04-20 18:30 | 49.76989 | 10.97228 | 15064 ft | 343 kts | 7° |
| 2026-04-20 18:30 | 49.79357 | 10.97768 | 15779 ft | 347 kts | 7° |
| 2026-04-20 18:30 | 49.81757 | 10.98316 | 16469 ft | 351 kts | 7° |
| 2026-04-20 18:30 | 49.84183 | 10.98871 | 17179 ft | 354 kts | 7° |
| 2026-04-20 18:31 | 49.86637 | 10.99432 | 17897 ft | 358 kts | 8° |
| 2026-04-20 18:31 | 49.89120 | 11.00001 | 18480 ft | 364 kts | 8° |
| 2026-04-20 18:31 | 49.91630 | 11.00576 | 19166 ft | 364 kts | 8° |
| 2026-04-20 18:31 | 49.94137 | 11.01150 | 19820 ft | 366 kts | 8° |
| 2026-04-20 18:32 | 49.96674 | 11.01733 | 20371 ft | 371 kts | 9° |
| 2026-04-20 18:32 | 49.99235 | 11.02322 | 20979 ft | 374 kts | 9° |
| 2026-04-20 18:32 | 50.01818 | 11.02917 | 21559 ft | 377 kts | 9° |
| 2026-04-20 18:32 | 50.04425 | 11.03519 | 22128 ft | 380 kts | 9° |
| 2026-04-20 18:33 | 50.07068 | 11.04130 | 22723 ft | 383 kts | 9° |
| 2026-04-20 18:33 | 50.09706 | 11.04740 | 23289 ft | 387 kts | 10° |
| 2026-04-20 18:33 | 50.12378 | 11.05359 | 23839 ft | 390 kts | 10° |
| 2026-04-20 18:33 | 50.15059 | 11.05982 | 24389 ft | 390 kts | 9° |
| 2026-04-20 18:34 | 50.17757 | 11.06610 | 24810 ft | 394 kts | 9° |
| 2026-04-20 18:34 | 50.20482 | 11.07244 | 25247 ft | 398 kts | 9° |
| 2026-04-20 18:34 | 50.23245 | 11.07886 | 25566 ft | 403 kts | 9° |
| 2026-04-20 18:34 | 50.26032 | 11.08537 | 26020 ft | 406 kts | 9° |
| 2026-04-20 18:35 | 50.28837 | 11.09194 | 26449 ft | 409 kts | 8° |
| 2026-04-20 18:35 | 50.31652 | 11.09854 | 26979 ft | 409 kts | 8° |
| 2026-04-20 18:35 | 50.34486 | 11.10519 | 27288 ft | 415 kts | 8° |
| 2026-04-20 18:35 | 50.37355 | 11.11191 | 27718 ft | 415 kts | 8° |
| 2026-04-20 18:36 | 50.40212 | 11.11863 | 28064 ft | 416 kts | 8° |
| 2026-04-20 18:36 | 50.43092 | 11.12541 | 28126 ft | 419 kts | 8° |
| 2026-04-20 18:36 | 50.48825 | 11.13891 | 28128 ft | 416 kts | 8° |
| 2026-04-20 18:37 | 50.54571 | 11.15247 | 28261 ft | 418 kts | 8° |
| 2026-04-20 18:37 | 50.57463 | 11.15931 | 28577 ft | 422 kts | 8° |
| 2026-04-20 18:37 | 50.60379 | 11.16622 | 29005 ft | 423 kts | 8° |
| 2026-04-20 18:38 | 50.63294 | 11.17315 | 29398 ft | 425 kts | 8° |
| 2026-04-20 18:38 | 50.66206 | 11.17816 | 29630 ft | 429 kts | 2° |
| 2026-04-20 18:38 | 50.69193 | 11.17769 | 30010 ft | 429 kts | 355° |
| 2026-04-20 18:38 | 50.72178 | 11.17319 | 30133 ft | 432 kts | 354° |
| 2026-04-20 18:39 | 50.78150 | 11.16416 | 30133 ft | 429 kts | 354° |
| 2026-04-20 18:39 | 50.84114 | 11.15515 | 30130 ft | 433 kts | 354° |
| 2026-04-20 18:40 | 50.90100 | 11.14598 | 30132 ft | 432 kts | 354° |
| 2026-04-20 18:40 | 50.96084 | 11.13676 | 30131 ft | 432 kts | 354° |
| 2026-04-20 18:41 | 51.02070 | 11.12752 | 30130 ft | 432 kts | 354° |
| 2026-04-20 18:41 | 51.08058 | 11.11822 | 30130 ft | 433 kts | 354° |
| 2026-04-20 18:42 | 51.14064 | 11.11656 | 30132 ft | 433 kts | 5° |
| 2026-04-20 18:42 | 51.20001 | 11.13315 | 30129 ft | 433 kts | 11° |
| 2026-04-20 18:43 | 51.25917 | 11.15129 | 30131 ft | 433 kts | 10° |
| 2026-04-20 18:43 | 51.31834 | 11.16960 | 30132 ft | 433 kts | 11° |
| 2026-04-20 18:44 | 51.37750 | 11.18809 | 30135 ft | 433 kts | 11° |
| 2026-04-20 18:44 | 51.43669 | 11.20668 | 30135 ft | 433 kts | 11° |
| 2026-04-20 18:45 | 51.49585 | 11.22530 | 30135 ft | 433 kts | 11° |
| 2026-04-20 18:45 | 51.55484 | 11.24389 | 30138 ft | 431 kts | 11° |
| 2026-04-20 18:46 | 51.61375 | 11.26249 | 30144 ft | 431 kts | 10° |
| 2026-04-20 18:46 | 51.67331 | 11.27462 | 30151 ft | 432 kts | 7° |
| 2026-04-20 18:47 | 51.73288 | 11.28622 | 30154 ft | 431 kts | 7° |
| 2026-04-20 18:47 | 51.79271 | 11.29331 | 30156 ft | 432 kts | 0° |
| 2026-04-20 18:48 | 51.85281 | 11.29082 | 30157 ft | 432 kts | 359° |
| 2026-04-20 18:48 | 51.91296 | 11.28937 | 30157 ft | 432 kts | 0° |
| 2026-04-20 18:49 | 51.97307 | 11.28908 | 30155 ft | 432 kts | 0° |
| 2026-04-20 18:49 | 52.03325 | 11.28890 | 30149 ft | 432 kts | 1° |
| 2026-04-20 18:50 | 52.09356 | 11.28872 | 30157 ft | 433 kts | 1° |
| 2026-04-20 18:50 | 52.15379 | 11.28846 | 30144 ft | 433 kts | 1° |
| 2026-04-20 18:51 | 52.21365 | 11.28832 | 30149 ft | 433 kts | 1° |
| 2026-04-20 18:51 | 52.27395 | 11.28813 | 30149 ft | 433 kts | 1° |
| 2026-04-20 18:52 | 52.33426 | 11.28800 | 30148 ft | 433 kts | 1° |
| 2026-04-20 18:52 | 52.39456 | 11.28786 | 30148 ft | 433 kts | 1° |
| 2026-04-20 18:53 | 52.45489 | 11.28771 | 29976 ft | 433 kts | 1° |
| 2026-04-20 18:53 | 52.48489 | 11.28763 | 29723 ft | 428 kts | 1° |
| 2026-04-20 18:53 | 52.51449 | 11.28755 | 29255 ft | 423 kts | 2° |
| 2026-04-20 18:54 | 52.54383 | 11.28747 | 28633 ft | 420 kts | 2° |
| 2026-04-20 18:54 | 52.57294 | 11.28740 | 27998 ft | 416 kts | 2° |
| 2026-04-20 18:54 | 52.60176 | 11.28733 | 27379 ft | 412 kts | 2° |
| 2026-04-20 18:54 | 52.63031 | 11.28726 | 26782 ft | 408 kts | 2° |
| 2026-04-20 18:55 | 52.65857 | 11.28718 | 26316 ft | 402 kts | 2° |
| 2026-04-20 18:55 | 52.68637 | 11.28711 | 26184 ft | 402 kts | 2° |
| 2026-04-20 18:55 | 52.71444 | 11.28707 | 26112 ft | 403 kts | 2° |
| 2026-04-20 18:55 | 52.74237 | 11.28703 | 25793 ft | 400 kts | 2° |
| 2026-04-20 18:56 | 52.77019 | 11.28698 | 25296 ft | 398 kts | 2° |
| 2026-04-20 18:56 | 52.79784 | 11.28691 | 24746 ft | 396 kts | 2° |
| 2026-04-20 18:56 | 52.82518 | 11.28684 | 24333 ft | 390 kts | 2° |
| 2026-04-20 18:56 | 52.85228 | 11.28676 | 24202 ft | 391 kts | 2° |
| 2026-04-20 18:57 | 52.87964 | 11.28671 | 24166 ft | 394 kts | 2° |
| 2026-04-20 18:57 | 52.90702 | 11.28664 | 24180 ft | 393 kts | 2° |
| 2026-04-20 18:57 | 52.93442 | 11.28656 | 24186 ft | 393 kts | 2° |
| 2026-04-20 18:57 | 52.96180 | 11.28649 | 24185 ft | 393 kts | 2° |
| 2026-04-20 18:58 | 52.98918 | 11.28641 | 24175 ft | 393 kts | 2° |
| 2026-04-20 18:58 | 53.01652 | 11.28634 | 24185 ft | 393 kts | 2° |
| 2026-04-20 18:58 | 53.04387 | 11.28626 | 24071 ft | 391 kts | 2° |
| 2026-04-20 18:58 | 53.07102 | 11.28542 | 23660 ft | 391 kts | 356° |
| 2026-04-20 18:59 | 53.09741 | 11.27473 | 23060 ft | 393 kts | 340° |
| 2026-04-20 18:59 | 53.12107 | 11.25296 | 22519 ft | 392 kts | 329° |
| 2026-04-20 18:59 | 53.14323 | 11.22660 | 21899 ft | 390 kts | 326° |
| 2026-04-20 18:59 | 53.16510 | 11.19999 | 21296 ft | 387 kts | 327° |
| 2026-04-20 19:00 | 53.18685 | 11.17454 | 21047 ft | 375 kts | 328° |
| 2026-04-20 19:00 | 53.20804 | 11.15065 | 20906 ft | 360 kts | 329° |
| 2026-04-20 19:00 | 53.22856 | 11.12808 | 20759 ft | 347 kts | 330° |
| 2026-04-20 19:00 | 53.24845 | 11.10648 | 20589 ft | 336 kts | 330° |
| 2026-04-20 19:01 | 53.26797 | 11.08541 | 20215 ft | 332 kts | 330° |
| 2026-04-20 19:01 | 53.28736 | 11.06451 | 19785 ft | 330 kts | 330° |
| 2026-04-20 19:01 | 53.30658 | 11.04375 | 19372 ft | 328 kts | 330° |
| 2026-04-20 19:01 | 53.32568 | 11.02307 | 18975 ft | 326 kts | 330° |
| 2026-04-20 19:02 | 53.34276 | 10.99817 | 18561 ft | 329 kts | 310° |
| 2026-04-20 19:02 | 53.35307 | 10.96390 | 18074 ft | 334 kts | 287° |
| 2026-04-20 19:02 | 53.35648 | 10.92543 | 17644 ft | 334 kts | 276° |
| 2026-04-20 19:02 | 53.35758 | 10.88732 | 17513 ft | 322 kts | 274° |
| 2026-04-20 19:03 | 53.35868 | 10.85064 | 17392 ft | 310 kts | 276° |
| 2026-04-20 19:03 | 53.36023 | 10.81535 | 17259 ft | 298 kts | 277° |
| 2026-04-20 19:03 | 53.36216 | 10.78109 | 16940 ft | 294 kts | 278° |
| 2026-04-20 19:03 | 53.36434 | 10.74705 | 16535 ft | 293 kts | 278° |
| 2026-04-20 19:04 | 53.36663 | 10.71317 | 16164 ft | 292 kts | 278° |
| 2026-04-20 19:04 | 53.36893 | 10.67941 | 15788 ft | 291 kts | 278° |
| 2026-04-20 19:04 | 53.37121 | 10.64578 | 15398 ft | 291 kts | 278° |
| 2026-04-20 19:04 | 53.37347 | 10.61217 | 15034 ft | 290 kts | 278° |
| 2026-04-20 19:05 | 53.37571 | 10.57878 | 14682 ft | 288 kts | 278° |
| 2026-04-20 19:05 | 53.37792 | 10.54547 | 14332 ft | 287 kts | 278° |
| 2026-04-20 19:05 | 53.38012 | 10.51222 | 13976 ft | 286 kts | 278° |
| 2026-04-20 19:05 | 53.38228 | 10.47953 | 13593 ft | 285 kts | 278° |
| 2026-04-20 19:06 | 53.38443 | 10.44663 | 13149 ft | 283 kts | 278° |
| 2026-04-20 19:06 | 53.38656 | 10.41399 | 12637 ft | 281 kts | 278° |
| 2026-04-20 19:06 | 53.38868 | 10.38150 | 12104 ft | 280 kts | 278° |
| 2026-04-20 19:06 | 53.39077 | 10.34919 | 11595 ft | 278 kts | 278° |
| 2026-04-20 19:07 | 53.39285 | 10.31705 | 11106 ft | 276 kts | 278° |
| 2026-04-20 19:07 | 53.39490 | 10.28524 | 10622 ft | 274 kts | 278° |
| 2026-04-20 19:07 | 53.39692 | 10.25364 | 10130 ft | 272 kts | 278° |
| 2026-04-20 19:07 | 53.39796 | 10.22207 | 9615 ft | 271 kts | 266° |
| 2026-04-20 19:08 | 53.39608 | 10.19084 | 9133 ft | 268 kts | 264° |
| 2026-04-20 19:08 | 53.39264 | 10.13974 | 8399 ft | 263 kts | 264° |
| 2026-04-20 19:08 | 53.39060 | 10.10942 | 7934 ft | 260 kts | 264° |
| 2026-04-20 19:09 | 53.38858 | 10.07944 | 7470 ft | 259 kts | 264° |
| 2026-04-20 19:09 | 53.38659 | 10.04967 | 7033 ft | 256 kts | 264° |
| 2026-04-20 19:09 | 53.38464 | 10.02020 | 6607 ft | 253 kts | 264° |
| 2026-04-20 19:09 | 53.38349 | 9.99084 | 6086 ft | 254 kts | 272° |
| 2026-04-20 19:10 | 53.38423 | 9.96145 | 5616 ft | 252 kts | 274° |
| 2026-04-20 19:10 | 53.38505 | 9.93223 | 5316 ft | 249 kts | 274° |
| 2026-04-20 19:10 | 53.38584 | 9.90341 | 5054 ft | 247 kts | 274° |
| 2026-04-20 19:10 | 53.38659 | 9.87474 | 4973 ft | 250 kts | 274° |
| 2026-04-20 19:11 | 53.38732 | 9.84560 | 4973 ft | 248 kts | 274° |
| 2026-04-20 19:11 | 53.38808 | 9.81685 | 4906 ft | 246 kts | 274° |
| 2026-04-20 19:11 | 53.38890 | 9.78835 | 4673 ft | 245 kts | 274° |
| 2026-04-20 19:11 | 53.38971 | 9.75956 | 4315 ft | 247 kts | 274° |
| 2026-04-20 19:12 | 53.39059 | 9.73109 | 4078 ft | 244 kts | 274° |
| 2026-04-20 19:12 | 53.39147 | 9.70278 | 3775 ft | 245 kts | 274° |
| 2026-04-20 19:12 | 53.39234 | 9.67426 | 3453 ft | 245 kts | 274° |
| 2026-04-20 19:12 | 53.39361 | 9.64568 | 3111 ft | 246 kts | 284° |
| 2026-04-20 19:13 | 53.40120 | 9.62089 | 2986 ft | 242 kts | 319° |
| 2026-04-20 19:13 | 53.41479 | 9.60603 | 2971 ft | 228 kts | 351° |
| 2026-04-20 19:13 | 53.42993 | 9.60621 | 2971 ft | 214 kts | 28° |
| 2026-04-20 19:13 | 53.44152 | 9.62089 | 2990 ft | 208 kts | 49° |
| 2026-04-20 19:14 | 53.45120 | 9.63833 | 2992 ft | 205 kts | 51° |
| 2026-04-20 19:14 | 53.46077 | 9.65616 | 2991 ft | 207 kts | 51° |
| 2026-04-20 19:14 | 53.47028 | 9.67397 | 2993 ft | 200 kts | 52° |
| 2026-04-20 19:14 | 53.47918 | 9.69067 | 2991 ft | 184 kts | 52° |
| 2026-04-20 19:15 | 53.48728 | 9.70587 | 3013 ft | 165 kts | 52° |
| 2026-04-20 19:15 | 53.49453 | 9.71947 | 2997 ft | 153 kts | 53° |
| 2026-04-20 19:15 | 53.50173 | 9.73315 | 2995 ft | 155 kts | 53° |
| 2026-04-20 19:15 | 53.50884 | 9.74673 | 2998 ft | 155 kts | 53° |
| 2026-04-20 19:16 | 53.51593 | 9.76037 | 2998 ft | 155 kts | 53° |
| 2026-04-20 19:16 | 53.52299 | 9.77401 | 2997 ft | 155 kts | 53° |
| 2026-04-20 19:16 | 53.53005 | 9.78777 | 2907 ft | 154 kts | 53° |
| 2026-04-20 19:16 | 53.53701 | 9.80135 | 2700 ft | 153 kts | 53° |
| 2026-04-20 19:17 | 53.54387 | 9.81480 | 2487 ft | 150 kts | 53° |
| 2026-04-20 19:17 | 53.55056 | 9.82799 | 2282 ft | 146 kts | 53° |
| 2026-04-20 19:17 | 53.55714 | 9.84101 | 2083 ft | 146 kts | 53° |
| 2026-04-20 19:17 | 53.56364 | 9.85390 | 1884 ft | 144 kts | 53° |
| 2026-04-20 19:18 | 53.57023 | 9.86668 | 1682 ft | 143 kts | 51° |
| 2026-04-20 19:18 | 53.57658 | 9.87933 | 1468 ft | 133 kts | 53° |
| 2026-04-20 19:18 | 53.58209 | 9.89045 | 1291 ft | 117 kts | 52° |
| 2026-04-20 19:18 | 53.58735 | 9.90106 | 1112 ft | 116 kts | 53° |
| 2026-04-20 19:19 | 53.59253 | 9.91156 | 945 ft | 120 kts | 52° |
| 2026-04-20 19:19 | 53.59780 | 9.92223 | 770 ft | 116 kts | 52° |
| 2026-04-20 19:19 | 53.60297 | 9.93271 | 611 ft | 119 kts | 50° |
| 2026-04-20 19:19 | 53.60835 | 9.94352 | 434 ft | 120 kts | 49° |
| 2026-04-20 19:20 | 53.61378 | 9.95460 | 273 ft | 126 kts | 51° |
| 2026-04-20 19:20 | 53.61927 | 9.96564 | 109 ft | 122 kts | 51° |
| 2026-04-20 19:20 | 53.62424 | 9.97582 | 47 ft | 85 kts | 50° |
| 2026-04-20 19:20 | 53.62715 | 9.98174 | 50 ft | 66 kts | 50° |
| 2026-04-20 19:21 | 53.62979 | 9.98707 | 49 ft | 39 kts | 50° |
| 2026-04-20 19:21 | 53.63089 | 9.99032 | 51 ft | 21 kts | 80° |
| 2026-04-20 19:21 | 53.63087 | 9.99222 | 50 ft | 7 kts | 94° |
| 2026-04-20 19:21 | 53.63086 | 9.99238 | 50 ft | 0 kts | 94° |
| 2026-04-20 19:23 | 53.63086 | 9.99259 | 50 ft | 4 kts | 94° |
| 2026-04-20 19:23 | 53.63095 | 9.99381 | 50 ft | 15 kts | 70° |
| 2026-04-20 19:23 | 53.63157 | 9.99541 | 49 ft | 18 kts | 52° |
| 2026-04-20 19:24 | 53.63241 | 9.99706 | 50 ft | 19 kts | 45° |
| 2026-04-20 19:24 | 53.63310 | 9.99828 | 50 ft | 13 kts | 50° |
| 2026-04-20 19:24 | 53.63372 | 9.99952 | 50 ft | 15 kts | 49° |
| 2026-04-20 19:24 | 53.63435 | 10.00082 | 50 ft | 14 kts | 58° |
| 2026-04-20 19:25 | 53.63447 | 10.00229 | 50 ft | 12 kts | 88° |
| 2026-04-20 19:25 | 53.63449 | 10.00311 | 50 ft | 0 kts | 88° |
| 2026-04-20 19:25 | 53.63449 | 10.00312 | 50 ft | 0 kts | 88° |